首页
METAR-TAF:

METAR-TAF

机场 :

突尼斯-迦太基国际机场

突尼斯, 突尼斯

纬度: 36-50N, 经度: 010-14E, 海拔: 3米

当前天气观测

该预报发布于15分钟前的08:30 UTC
静风
温度 31°C
湿度 40%
气压 1014 hPa
能见度10公里或以上
1500米以下无云,无积雨云

METAR: DTTA 140830Z 00000KT CAVOK 31/16 Q1014 NOSIG

时间: 09:45 (08:45 UTC)

预报

该预报发布于3小时和45分钟前的05:00 UTC
预报有效从14日的 06点(UTC)到 15日的 06点(UTC)
风速3节,风向
能见度10公里或以上
少量云层高于2600英尺
成为
从 14日的 07点(UTC)到 14日的 09点(UTC)
风速3节,风向多变
成为
从 14日的 11点(UTC)到 14日的 13点(UTC)
风速12节,风向北转西北
能见度10公里或以上
散云层高于2300英尺
散云层高于2600英尺
短暂存在
从 14日的 16点(UTC)到 14日的 18点(UTC)
风速15节,风向多变,有时为25节阵风
能見度: 4000
少量云层高于3000英尺, 积雨云.
雷暴, 雨
成为
从 14日的 19点(UTC)到 14日的 21点(UTC)
风速10节,风向西

TAF: DTTA 140500Z 1406/1506 19003KT 9999 FEW026 BECMG 1407/1409 VRB03KT BECMG 1411/1413 34012KT 9999 SCT023 SCT026 TEMPO 1416/1418 VRB15G25KT 4000 TSRA FEW030CB BECMG 1419/1421 28010KT

超过4000个机场的气象观测和天气预报(METAR&TAF报告)。

可查询的气象台以黄色和红色小点在地图上表示。

将鼠标移到小点上方,可查看气象台名称。

然后点击查看天气观测和预报。

如需切换地图:点击带黑十字的绿色按钮放大地图;点击带横线的绿色按钮缩小地图;或者点击绿色箭头查看邻近地区的地图。


METAR-TAF: